Etusivu
METAR-TAF:

METAR-TAF

Lentoasemat :

Pajala-Ylläksen lentoasema

Pajala, Ruotsi

Leveyspiiri: 67-14-44N, Pituuspiiri: 023-04-08E, korkeus merenpinnasta: 165 m

Tämänhetkinen sää

Tämä raportti tehtiin 34 minuuttia sitten, kello 15.20 UTC
Tuuli 8 kn etelästä, vaihdellen etelän/kaakon ja lounaan välillä
Lämpötila 24°C
Kosteus 50%
Ilmanpaine 1008 hPa
Näkyvyys 10 km tai enemmän

METAR: ESUP 231520Z AUTO 19008KT 150V220 9999 NCD 24/13 Q1008

Aika: 17:54 (15:54 UTC)


TAF: puuttuu

Säähavainnot ja -ennusteet yli 4000 lentoasemalta (METAR- ja TAF-raportit).

Käytössä olevat sääasemat on merkitty karttaan keltaisilla ja punaisilla pisteillä.

Aseta hiiri pisteen päälle nähdäksesi sääaseman nimen.

Klikkaa sitten nähdäksesi säähavainnot ja -ennusteet.

Kartan vaihtaminen: klikkaa mustalla rastilla varustettuja vihreitä pisteitä, niin voit zoomata sisään; viivalla varustettua vihreää pistettä, niin voit zoomata ulos tai vihreitä nuolia, niin pääset viereisille kartoille.


METAR-TAF: